sensor_id;sensor_type;location;lat;lon;timestamp;P1;durP1;ratioP1;P2;durP2;ratioP2
51298;SDS011;37382;45.192;9.790;2022-12-11T04:54:36;19.45;;;13.20;;
51298;SDS011;37382;45.192;9.790;2022-12-11T04:57:04;21.38;;;13.57;;
51298;SDS011;37382;45.192;9.790;2022-12-11T04:59:32;18.42;;;12.85;;
51298;SDS011;37382;45.192;9.790;2022-12-11T05:01:59;22.13;;;14.65;;
51298;SDS011;37382;45.192;9.790;2022-12-11T05:04:31;19.83;;;13.25;;
51298;SDS011;37382;45.192;9.790;2022-12-11T05:07:00;28.05;;;14.68;;
51298;SDS011;37382;45.192;9.790;2022-12-11T05:09:28;20.15;;;13.85;;
51298;SDS011;37382;45.192;9.790;2022-12-11T05:11:57;25.15;;;15.13;;
51298;SDS011;37382;45.192;9.790;2022-12-11T05:14:24;25.00;;;14.45;;
51298;SDS011;37382;45.192;9.790;2022-12-11T05:16:53;22.95;;;14.57;;
51298;SDS011;37382;45.192;9.790;2022-12-11T05:19:20;31.63;;;15.35;;
51298;SDS011;37382;45.192;9.790;2022-12-11T05:21:48;25.73;;;15.32;;
51298;SDS011;37382;45.192;9.790;2022-12-11T05:24:15;32.13;;;16.27;;
51298;SDS011;37382;45.192;9.790;2022-12-11T05:26:43;29.77;;;16.23;;
51298;SDS011;37382;45.192;9.790;2022-12-11T05:29:10;34.75;;;16.90;;
51298;SDS011;37382;45.192;9.790;2022-12-11T05:31:38;34.33;;;17.50;;
51298;SDS011;37382;45.192;9.790;2022-12-11T05:34:05;35.22;;;17.50;;
51298;SDS011;37382;45.192;9.790;2022-12-11T05:36:32;37.63;;;18.40;;
51298;SDS011;37382;45.192;9.790;2022-12-11T05:39:01;37.15;;;18.40;;
51298;SDS011;37382;45.192;9.790;2022-12-11T05:41:30;35.78;;;17.52;;
51298;SDS011;37382;45.192;9.790;2022-12-11T05:43:58;32.85;;;18.05;;
51298;SDS011;37382;45.192;9.790;2022-12-11T05:46:27;35.70;;;18.75;;
51298;SDS011;37382;45.192;9.790;2022-12-11T05:48:57;36.65;;;17.77;;
51298;SDS011;37382;45.192;9.790;2022-12-11T05:51:26;39.67;;;18.33;;
51298;SDS011;37382;45.192;9.790;2022-12-11T05:53:56;37.88;;;19.38;;
51298;SDS011;37382;45.192;9.790;2022-12-11T05:56:25;37.35;;;18.58;;
51298;SDS011;37382;45.192;9.790;2022-12-11T05:58:57;36.97;;;19.33;;
51298;SDS011;37382;45.192;9.790;2022-12-11T06:01:33;37.83;;;19.05;;
51298;SDS011;37382;45.192;9.790;2022-12-11T06:04:04;40.70;;;19.75;;
51298;SDS011;37382;45.192;9.790;2022-12-11T06:06:33;36.88;;;19.10;;
51298;SDS011;37382;45.192;9.790;2022-12-11T06:09:01;49.72;;;21.08;;
51298;SDS011;37382;45.192;9.790;2022-12-11T06:11:31;39.70;;;18.48;;
51298;SDS011;37382;45.192;9.790;2022-12-11T06:14:00;43.92;;;19.48;;
51298;SDS011;37382;45.192;9.790;2022-12-11T06:16:29;45.33;;;20.98;;
51298;SDS011;37382;45.192;9.790;2022-12-11T06:18:56;41.83;;;19.13;;
51298;SDS011;37382;45.192;9.790;2022-12-11T06:21:26;39.78;;;20.10;;
51298;SDS011;37382;45.192;9.790;2022-12-11T06:23:56;42.38;;;19.70;;
51298;SDS011;37382;45.192;9.790;2022-12-11T06:26:26;40.58;;;19.55;;
51298;SDS011;37382;45.192;9.790;2022-12-11T06:28:54;40.53;;;19.83;;
51298;SDS011;37382;45.192;9.790;2022-12-11T06:31:22;44.35;;;19.75;;
51298;SDS011;37382;45.192;9.790;2022-12-11T06:33:50;36.42;;;18.58;;
51298;SDS011;37382;45.192;9.790;2022-12-11T06:36:20;37.72;;;18.95;;
51298;SDS011;37382;45.192;9.790;2022-12-11T06:38:49;38.20;;;20.07;;
51298;SDS011;37382;45.192;9.790;2022-12-11T06:41:17;40.13;;;19.42;;
51298;SDS011;37382;45.192;9.790;2022-12-11T06:43:44;38.67;;;19.23;;
51298;SDS011;37382;45.192;9.790;2022-12-11T06:46:14;39.75;;;18.70;;
51298;SDS011;37382;45.192;9.790;2022-12-11T06:48:43;36.40;;;19.35;;
51298;SDS011;37382;45.192;9.790;2022-12-11T06:51:12;41.53;;;18.73;;
51298;SDS011;37382;45.192;9.790;2022-12-11T06:53:42;36.55;;;18.48;;
51298;SDS011;37382;45.192;9.790;2022-12-11T06:56:11;33.85;;;18.10;;
51298;SDS011;37382;45.192;9.790;2022-12-11T06:58:41;29.67;;;17.13;;
51298;SDS011;37382;45.192;9.790;2022-12-11T07:01:16;31.70;;;18.00;;
51298;SDS011;37382;45.192;9.790;2022-12-11T07:03:53;33.22;;;18.10;;
51298;SDS011;37382;45.192;9.790;2022-12-11T07:06:21;43.53;;;22.27;;
51298;SDS011;37382;45.192;9.790;2022-12-11T07:08:49;36.72;;;19.45;;
51298;SDS011;37382;45.192;9.790;2022-12-11T07:11:18;30.25;;;16.50;;
51298;SDS011;37382;45.192;9.790;2022-12-11T07:13:46;22.33;;;14.85;;
51298;SDS011;37382;45.192;9.790;2022-12-11T07:16:15;28.27;;;15.95;;
51298;SDS011;37382;45.192;9.790;2022-12-11T07:18:47;23.20;;;14.35;;
51298;SDS011;37382;45.192;9.790;2022-12-11T07:21:16;18.63;;;12.23;;
51298;SDS011;37382;45.192;9.790;2022-12-11T07:23:46;28.83;;;16.00;;
51298;SDS011;37382;45.192;9.790;2022-12-11T07:26:16;29.33;;;16.45;;
51298;SDS011;37382;45.192;9.790;2022-12-11T07:28:45;22.05;;;14.15;;
51298;SDS011;37382;45.192;9.790;2022-12-11T07:31:15;20.08;;;12.98;;
51298;SDS011;37382;45.192;9.790;2022-12-11T07:33:57;20.55;;;13.30;;
51298;SDS011;37382;45.192;9.790;2022-12-11T07:36:30;17.58;;;12.07;;
51298;SDS011;37382;45.192;9.790;2022-12-11T07:38:58;18.63;;;11.98;;
51298;SDS011;37382;45.192;9.790;2022-12-11T07:41:26;18.35;;;13.23;;
51298;SDS011;37382;45.192;9.790;2022-12-11T07:43:54;20.58;;;13.68;;
51298;SDS011;37382;45.192;9.790;2022-12-11T07:46:23;18.20;;;12.60;;
51298;SDS011;37382;45.192;9.790;2022-12-11T07:48:52;18.52;;;12.50;;
51298;SDS011;37382;45.192;9.790;2022-12-11T07:51:25;23.92;;;12.40;;
51298;SDS011;37382;45.192;9.790;2022-12-11T07:53:54;27.00;;;13.63;;
51298;SDS011;37382;45.192;9.790;2022-12-11T07:56:26;21.38;;;13.00;;
51298;SDS011;37382;45.192;9.790;2022-12-11T07:58:55;17.67;;;11.77;;
51298;SDS011;37382;45.192;9.790;2022-12-11T08:01:25;19.40;;;13.30;;
51298;SDS011;37382;45.192;9.790;2022-12-11T08:03:55;21.00;;;13.27;;
51298;SDS011;37382;45.192;9.790;2022-12-11T08:06:24;25.63;;;15.32;;
51298;SDS011;37382;45.192;9.790;2022-12-11T08:08:54;21.05;;;13.40;;
51298;SDS011;37382;45.192;9.790;2022-12-11T08:11:22;16.33;;;12.07;;
51298;SDS011;37382;45.192;9.790;2022-12-11T08:13:50;17.85;;;12.20;;
51298;SDS011;37382;45.192;9.790;2022-12-11T08:16:17;20.75;;;14.60;;
51298;SDS011;37382;45.192;9.790;2022-12-11T08:18:46;25.38;;;17.15;;
51298;SDS011;37382;45.192;9.790;2022-12-11T08:21:15;19.98;;;14.05;;
51298;SDS011;37382;45.192;9.790;2022-12-11T08:23:47;18.15;;;13.15;;
51298;SDS011;37382;45.192;9.790;2022-12-11T08:26:16;17.60;;;12.95;;
51298;SDS011;37382;45.192;9.790;2022-12-11T08:28:50;33.35;;;18.80;;
51298;SDS011;37382;45.192;9.790;2022-12-11T08:31:18;23.00;;;14.75;;
51298;SDS011;37382;45.192;9.790;2022-12-11T08:33:46;37.67;;;21.67;;
51298;SDS011;37382;45.192;9.790;2022-12-11T08:36:15;25.17;;;17.02;;
51298;SDS011;37382;45.192;9.790;2022-12-11T08:38:45;18.48;;;13.93;;
51298;SDS011;37382;45.192;9.790;2022-12-11T08:41:14;22.77;;;15.48;;
51298;SDS011;37382;45.192;9.790;2022-12-11T08:43:43;24.30;;;15.60;;
51298;SDS011;37382;45.192;9.790;2022-12-11T08:46:11;21.60;;;13.93;;
51298;SDS011;37382;45.192;9.790;2022-12-11T08:48:40;31.75;;;19.02;;
51298;SDS011;37382;45.192;9.790;2022-12-11T08:51:12;22.15;;;13.77;;
51298;SDS011;37382;45.192;9.790;2022-12-11T08:53:42;23.95;;;15.80;;
51298;SDS011;37382;45.192;9.790;2022-12-11T08:56:12;25.85;;;16.88;;
51298;SDS011;37382;45.192;9.790;2022-12-11T08:58:43;22.95;;;16.38;;
51298;SDS011;37382;45.192;9.790;2022-12-11T09:01:12;21.40;;;14.50;;
51298;SDS011;37382;45.192;9.790;2022-12-11T09:03:41;27.17;;;17.60;;
51298;SDS011;37382;45.192;9.790;2022-12-11T09:06:10;35.97;;;21.98;;
51298;SDS011;37382;45.192;9.790;2022-12-11T09:08:40;24.60;;;15.98;;
51298;SDS011;37382;45.192;9.790;2022-12-11T09:11:17;28.63;;;16.63;;
51298;SDS011;37382;45.192;9.790;2022-12-11T09:13:49;43.40;;;27.00;;
51298;SDS011;37382;45.192;9.790;2022-12-11T09:16:18;39.42;;;21.40;;
51298;SDS011;37382;45.192;9.790;2022-12-11T09:18:47;32.33;;;18.65;;
51298;SDS011;37382;45.192;9.790;2022-12-11T09:21:17;27.75;;;17.20;;
51298;SDS011;37382;45.192;9.790;2022-12-11T09:23:48;20.67;;;15.13;;
51298;SDS011;37382;45.192;9.790;2022-12-11T09:26:18;22.08;;;14.75;;
51298;SDS011;37382;45.192;9.790;2022-12-11T09:28:45;26.40;;;18.30;;
51298;SDS011;37382;45.192;9.790;2022-12-11T09:31:14;20.30;;;13.82;;
51298;SDS011;37382;45.192;9.790;2022-12-11T09:33:46;19.83;;;13.48;;
51298;SDS011;37382;45.192;9.790;2022-12-11T09:36:14;28.60;;;16.58;;
51298;SDS011;37382;45.192;9.790;2022-12-11T09:38:41;23.67;;;15.82;;
51298;SDS011;37382;45.192;9.790;2022-12-11T09:46:40;19.40;;;13.80;;
51298;SDS011;37382;45.192;9.790;2022-12-11T09:49:42;18.20;;;13.63;;
51298;SDS011;37382;45.192;9.790;2022-12-11T09:52:11;26.10;;;16.45;;
51298;SDS011;37382;45.192;9.790;2022-12-11T09:54:51;25.58;;;16.30;;
51298;SDS011;37382;45.192;9.790;2022-12-11T09:57:34;24.73;;;15.95;;
51298;SDS011;37382;45.192;9.790;2022-12-11T10:11:07;19.15;;;12.88;;
51298;SDS011;37382;45.192;9.790;2022-12-11T10:13:52;18.80;;;12.90;;
51298;SDS011;37382;45.192;9.790;2022-12-11T10:16:44;18.38;;;12.90;;
51298;SDS011;37382;45.192;9.790;2022-12-11T10:19:22;58.75;;;31.75;;
51298;SDS011;37382;45.192;9.790;2022-12-11T10:21:54;55.53;;;33.72;;
51298;SDS011;37382;45.192;9.790;2022-12-11T10:27:31;27.40;;;18.00;;
51298;SDS011;37382;45.192;9.790;2022-12-11T10:35:30;24.00;;;16.75;;
51298;SDS011;37382;45.192;9.790;2022-12-11T10:38:11;32.38;;;20.42;;
51298;SDS011;37382;45.192;9.790;2022-12-11T10:40:43;15.88;;;11.90;;
51298;SDS011;37382;45.192;9.790;2022-12-11T10:43:13;17.83;;;12.70;;
51298;SDS011;37382;45.192;9.790;2022-12-11T10:45:52;17.35;;;11.85;;
51298;SDS011;37382;45.192;9.790;2022-12-11T10:48:20;18.08;;;11.90;;
51298;SDS011;37382;45.192;9.790;2022-12-11T10:50:56;18.45;;;12.95;;
51298;SDS011;37382;45.192;9.790;2022-12-11T10:53:27;22.67;;;14.75;;
51298;SDS011;37382;45.192;9.790;2022-12-11T10:55:55;30.38;;;18.23;;
51298;SDS011;37382;45.192;9.790;2022-12-11T10:58:25;33.65;;;20.30;;
51298;SDS011;37382;45.192;9.790;2022-12-11T11:01:13;35.83;;;17.63;;
51298;SDS011;37382;45.192;9.790;2022-12-11T11:03:50;14.52;;;11.23;;
51298;SDS011;37382;45.192;9.790;2022-12-11T11:06:20;18.83;;;12.05;;
51298;SDS011;37382;45.192;9.790;2022-12-11T11:08:51;15.45;;;10.52;;
51298;SDS011;37382;45.192;9.790;2022-12-11T11:11:25;18.02;;;12.50;;
51298;SDS011;37382;45.192;9.790;2022-12-11T11:14:17;17.83;;;10.77;;
51298;SDS011;37382;45.192;9.790;2022-12-11T11:16:47;14.20;;;10.27;;
51298;SDS011;37382;45.192;9.790;2022-12-11T11:21:54;13.43;;;9.45;;
51298;SDS011;37382;45.192;9.790;2022-12-11T11:24:29;13.95;;;10.23;;
51298;SDS011;37382;45.192;9.790;2022-12-11T11:26:58;16.10;;;11.85;;
51298;SDS011;37382;45.192;9.790;2022-12-11T11:29:41;15.70;;;10.50;;
51298;SDS011;37382;45.192;9.790;2022-12-11T11:32:22;11.23;;;8.93;;
51298;SDS011;37382;45.192;9.790;2022-12-11T11:37:41;10.57;;;8.65;;
51298;SDS011;37382;45.192;9.790;2022-12-11T11:42:42;7.55;;;5.65;;
51298;SDS011;37382;45.192;9.790;2022-12-11T11:45:21;9.73;;;5.40;;
51298;SDS011;37382;45.192;9.790;2022-12-11T11:47:59;12.63;;;8.73;;
51298;SDS011;37382;45.192;9.790;2022-12-11T11:50:37;6.72;;;5.32;;
51298;SDS011;37382;45.192;9.790;2022-12-11T11:53:23;6.28;;;4.70;;
51298;SDS011;37382;45.192;9.790;2022-12-11T11:59:14;17.17;;;10.48;;
51298;SDS011;37382;45.192;9.790;2022-12-11T12:01:47;38.25;;;22.80;;
51298;SDS011;37382;45.192;9.790;2022-12-11T12:04:14;7.35;;;5.78;;
51298;SDS011;37382;45.192;9.790;2022-12-11T12:15:58;14.20;;;8.02;;
51298;SDS011;37382;45.192;9.790;2022-12-11T12:18:51;10.90;;;7.35;;
51298;SDS011;37382;45.192;9.790;2022-12-11T12:21:34;5.40;;;4.22;;
51298;SDS011;37382;45.192;9.790;2022-12-11T12:24:14;11.95;;;8.15;;
51298;SDS011;37382;45.192;9.790;2022-12-11T12:32:28;5.32;;;3.55;;
51298;SDS011;37382;45.192;9.790;2022-12-11T12:35:08;2.33;;;2.13;;
51298;SDS011;37382;45.192;9.790;2022-12-11T12:40:31;3.83;;;3.30;;
51298;SDS011;37382;45.192;9.790;2022-12-11T12:48:46;10.88;;;6.63;;
51298;SDS011;37382;45.192;9.790;2022-12-11T12:51:15;3.72;;;3.10;;
51298;SDS011;37382;45.192;9.790;2022-12-11T12:54:19;3.00;;;2.70;;
51298;SDS011;37382;45.192;9.790;2022-12-11T12:56:42;4.57;;;3.72;;
51298;SDS011;37382;45.192;9.790;2022-12-11T12:59:20;14.40;;;9.70;;
51298;SDS011;37382;45.192;9.790;2022-12-11T13:01:50;5.55;;;4.88;;
51298;SDS011;37382;45.192;9.790;2022-12-11T13:04:27;3.17;;;2.88;;
51298;SDS011;37382;45.192;9.790;2022-12-11T13:07:25;5.20;;;4.03;;
51298;SDS011;37382;45.192;9.790;2022-12-11T13:10:02;2.47;;;2.10;;
51298;SDS011;37382;45.192;9.790;2022-12-11T13:12:43;3.30;;;2.40;;
51298;SDS011;37382;45.192;9.790;2022-12-11T13:24:16;7.40;;;5.10;;
51298;SDS011;37382;45.192;9.790;2022-12-11T13:26:47;12.23;;;8.23;;
51298;SDS011;37382;45.192;9.790;2022-12-11T13:31:59;14.57;;;7.82;;
51298;SDS011;37382;45.192;9.790;2022-12-11T13:34:32;11.63;;;8.65;;
51298;SDS011;37382;45.192;9.790;2022-12-11T13:37:01;17.20;;;10.48;;
51298;SDS011;37382;45.192;9.790;2022-12-11T13:39:31;15.18;;;7.93;;
51298;SDS011;37382;45.192;9.790;2022-12-11T13:42:05;13.27;;;7.50;;
51298;SDS011;37382;45.192;9.790;2022-12-11T13:44:47;16.05;;;7.88;;
51298;SDS011;37382;45.192;9.790;2022-12-11T13:47:16;14.00;;;10.85;;
51298;SDS011;37382;45.192;9.790;2022-12-11T13:49:46;8.80;;;5.72;;
51298;SDS011;37382;45.192;9.790;2022-12-11T13:52:19;9.18;;;5.97;;
51298;SDS011;37382;45.192;9.790;2022-12-11T13:54:51;14.68;;;8.82;;
51298;SDS011;37382;45.192;9.790;2022-12-11T13:57:21;13.10;;;8.53;;
51298;SDS011;37382;45.192;9.790;2022-12-11T13:59:52;7.38;;;4.60;;
51298;SDS011;37382;45.192;9.790;2022-12-11T14:02:22;5.28;;;4.70;;
51298;SDS011;37382;45.192;9.790;2022-12-11T14:05:03;2.60;;;2.40;;
51298;SDS011;37382;45.192;9.790;2022-12-11T14:07:46;5.80;;;4.20;;
51298;SDS011;37382;45.192;9.790;2022-12-11T14:10:25;5.70;;;3.97;;
51298;SDS011;37382;45.192;9.790;2022-12-11T14:15:25;14.13;;;10.80;;
51298;SDS011;37382;45.192;9.790;2022-12-11T14:17:57;5.20;;;3.83;;
51298;SDS011;37382;45.192;9.790;2022-12-11T14:20:30;5.50;;;4.82;;
51298;SDS011;37382;45.192;9.790;2022-12-11T14:25:54;27.95;;;17.10;;
51298;SDS011;37382;45.192;9.790;2022-12-11T14:28:25;24.75;;;16.85;;
51298;SDS011;37382;45.192;9.790;2022-12-11T14:30:55;10.55;;;6.72;;
51298;SDS011;37382;45.192;9.790;2022-12-11T14:33:27;15.68;;;10.43;;
51298;SDS011;37382;45.192;9.790;2022-12-11T14:35:58;10.68;;;7.70;;
51298;SDS011;37382;45.192;9.790;2022-12-11T14:41:02;28.30;;;15.90;;
51298;SDS011;37382;45.192;9.790;2022-12-11T14:43:40;23.40;;;13.63;;
51298;SDS011;37382;45.192;9.790;2022-12-11T14:46:16;25.33;;;13.20;;
51298;SDS011;37382;45.192;9.790;2022-12-11T14:48:54;18.33;;;10.10;;
51298;SDS011;37382;45.192;9.790;2022-12-11T14:51:32;9.90;;;6.47;;
51298;SDS011;37382;45.192;9.790;2022-12-11T14:54:06;12.23;;;7.40;;
51298;SDS011;37382;45.192;9.790;2022-12-11T14:56:46;20.67;;;11.32;;
51298;SDS011;37382;45.192;9.790;2022-12-11T14:59:18;15.30;;;8.27;;
51298;SDS011;37382;45.192;9.790;2022-12-11T15:01:58;12.23;;;8.02;;
51298;SDS011;37382;45.192;9.790;2022-12-11T15:04:55;34.88;;;15.00;;
51298;SDS011;37382;45.192;9.790;2022-12-11T15:07:27;23.58;;;11.43;;
51298;SDS011;37382;45.192;9.790;2022-12-11T15:09:55;27.77;;;12.65;;
51298;SDS011;37382;45.192;9.790;2022-12-11T15:12:23;14.93;;;8.90;;
51298;SDS011;37382;45.192;9.790;2022-12-11T15:14:55;12.90;;;8.82;;
51298;SDS011;37382;45.192;9.790;2022-12-11T15:17:29;10.55;;;7.10;;
51298;SDS011;37382;45.192;9.790;2022-12-11T15:20:02;13.80;;;9.27;;
51298;SDS011;37382;45.192;9.790;2022-12-11T15:22:34;10.55;;;5.60;;
51298;SDS011;37382;45.192;9.790;2022-12-11T15:25:03;12.00;;;5.72;;
51298;SDS011;37382;45.192;9.790;2022-12-11T15:27:32;9.05;;;7.18;;
51298;SDS011;37382;45.192;9.790;2022-12-11T15:30:24;20.58;;;10.45;;
51298;SDS011;37382;45.192;9.790;2022-12-11T15:33:04;18.02;;;9.45;;
51298;SDS011;37382;45.192;9.790;2022-12-11T15:35:49;9.27;;;6.45;;
51298;SDS011;37382;45.192;9.790;2022-12-11T15:38:32;16.70;;;10.40;;
51298;SDS011;37382;45.192;9.790;2022-12-11T15:41:13;8.15;;;5.88;;
51298;SDS011;37382;45.192;9.790;2022-12-11T15:43:43;8.25;;;6.50;;
51298;SDS011;37382;45.192;9.790;2022-12-11T15:46:10;8.52;;;7.55;;
51298;SDS011;37382;45.192;9.790;2022-12-11T15:48:38;11.88;;;8.23;;
51298;SDS011;37382;45.192;9.790;2022-12-11T15:51:05;9.85;;;5.55;;
51298;SDS011;37382;45.192;9.790;2022-12-11T15:53:33;10.57;;;6.53;;
51298;SDS011;37382;45.192;9.790;2022-12-11T15:56:00;12.55;;;8.00;;
51298;SDS011;37382;45.192;9.790;2022-12-11T15:58:29;12.60;;;9.38;;
51298;SDS011;37382;45.192;9.790;2022-12-11T16:00:56;13.02;;;9.98;;
51298;SDS011;37382;45.192;9.790;2022-12-11T16:03:24;16.45;;;11.13;;
51298;SDS011;37382;45.192;9.790;2022-12-11T16:05:52;13.52;;;9.77;;
51298;SDS011;37382;45.192;9.790;2022-12-11T16:08:20;13.40;;;9.75;;
51298;SDS011;37382;45.192;9.790;2022-12-11T16:10:50;9.75;;;8.75;;
51298;SDS011;37382;45.192;9.790;2022-12-11T16:13:20;14.98;;;10.85;;
51298;SDS011;37382;45.192;9.790;2022-12-11T16:15:49;18.02;;;13.65;;
51298;SDS011;37382;45.192;9.790;2022-12-11T16:18:19;19.73;;;13.48;;
51298;SDS011;37382;45.192;9.790;2022-12-11T16:20:48;12.15;;;9.02;;
51298;SDS011;37382;45.192;9.790;2022-12-11T16:23:17;10.65;;;8.65;;
51298;SDS011;37382;45.192;9.790;2022-12-11T16:25:45;17.65;;;8.10;;
51298;SDS011;37382;45.192;9.790;2022-12-11T16:28:14;8.35;;;6.78;;
51298;SDS011;37382;45.192;9.790;2022-12-11T16:30:44;10.20;;;6.43;;
51298;SDS011;37382;45.192;9.790;2022-12-11T16:33:12;9.82;;;4.68;;
51298;SDS011;37382;45.192;9.790;2022-12-11T16:35:40;12.20;;;9.45;;
51298;SDS011;37382;45.192;9.790;2022-12-11T16:38:09;13.25;;;10.63;;
51298;SDS011;37382;45.192;9.790;2022-12-11T16:40:37;7.40;;;6.03;;
51298;SDS011;37382;45.192;9.790;2022-12-11T16:43:05;38.63;;;21.83;;
51298;SDS011;37382;45.192;9.790;2022-12-11T16:45:33;34.97;;;21.92;;
51298;SDS011;37382;45.192;9.790;2022-12-11T16:48:03;47.00;;;27.80;;
51298;SDS011;37382;45.192;9.790;2022-12-11T16:50:31;30.83;;;19.30;;
51298;SDS011;37382;45.192;9.790;2022-12-11T16:52:58;30.83;;;20.60;;
51298;SDS011;37382;45.192;9.790;2022-12-11T16:55:26;33.10;;;22.77;;
51298;SDS011;37382;45.192;9.790;2022-12-11T16:57:54;83.68;;;44.85;;
51298;SDS011;37382;45.192;9.790;2022-12-11T17:00:21;84.95;;;46.88;;
51298;SDS011;37382;45.192;9.790;2022-12-11T17:02:49;53.65;;;34.28;;
51298;SDS011;37382;45.192;9.790;2022-12-11T17:05:16;41.22;;;27.58;;
51298;SDS011;37382;45.192;9.790;2022-12-11T17:07:44;28.15;;;19.70;;
51298;SDS011;37382;45.192;9.790;2022-12-11T17:10:12;15.63;;;12.88;;
51298;SDS011;37382;45.192;9.790;2022-12-11T17:12:39;11.38;;;9.60;;
51298;SDS011;37382;45.192;9.790;2022-12-11T17:15:07;52.67;;;27.45;;
51298;SDS011;37382;45.192;9.790;2022-12-11T17:17:36;26.15;;;14.98;;
51298;SDS011;37382;45.192;9.790;2022-12-11T17:20:03;5.15;;;4.65;;
51298;SDS011;37382;45.192;9.790;2022-12-11T17:22:31;5.18;;;4.68;;
51298;SDS011;37382;45.192;9.790;2022-12-11T17:24:59;6.50;;;5.32;;
51298;SDS011;37382;45.192;9.790;2022-12-11T17:27:26;7.43;;;5.40;;
51298;SDS011;37382;45.192;9.790;2022-12-11T17:29:53;7.95;;;4.97;;
51298;SDS011;37382;45.192;9.790;2022-12-11T17:32:21;8.18;;;5.72;;
51298;SDS011;37382;45.192;9.790;2022-12-11T17:34:48;8.48;;;4.30;;
51298;SDS011;37382;45.192;9.790;2022-12-11T17:37:17;4.93;;;4.40;;
51298;SDS011;37382;45.192;9.790;2022-12-11T17:39:44;6.47;;;4.95;;
51298;SDS011;37382;45.192;9.790;2022-12-11T17:42:13;7.22;;;5.82;;
51298;SDS011;37382;45.192;9.790;2022-12-11T17:44:41;6.20;;;4.78;;
51298;SDS011;37382;45.192;9.790;2022-12-11T17:47:11;9.85;;;6.63;;
51298;SDS011;37382;45.192;9.790;2022-12-11T17:49:38;23.08;;;13.90;;
51298;SDS011;37382;45.192;9.790;2022-12-11T17:52:06;20.30;;;13.10;;
51298;SDS011;37382;45.192;9.790;2022-12-11T17:54:34;17.17;;;12.02;;
51298;SDS011;37382;45.192;9.790;2022-12-11T17:57:02;17.48;;;12.68;;
51298;SDS011;37382;45.192;9.790;2022-12-11T17:59:30;18.88;;;13.05;;
51298;SDS011;37382;45.192;9.790;2022-12-11T18:01:57;28.73;;;16.55;;
51298;SDS011;37382;45.192;9.790;2022-12-11T18:04:25;17.50;;;12.65;;
51298;SDS011;37382;45.192;9.790;2022-12-11T18:06:53;20.92;;;14.07;;
51298;SDS011;37382;45.192;9.790;2022-12-11T18:09:20;15.93;;;11.10;;
51298;SDS011;37382;45.192;9.790;2022-12-11T18:11:48;18.08;;;11.35;;
51298;SDS011;37382;45.192;9.790;2022-12-11T18:14:17;20.25;;;13.77;;
51298;SDS011;37382;45.192;9.790;2022-12-11T18:16:45;15.32;;;9.25;;
51298;SDS011;37382;45.192;9.790;2022-12-11T18:19:12;14.02;;;8.77;;
51298;SDS011;37382;45.192;9.790;2022-12-11T18:21:42;17.27;;;9.00;;
51298;SDS011;37382;45.192;9.790;2022-12-11T18:24:10;13.05;;;9.73;;
51298;SDS011;37382;45.192;9.790;2022-12-11T18:26:38;15.68;;;10.43;;
51298;SDS011;37382;45.192;9.790;2022-12-11T18:29:06;14.85;;;8.80;;
51298;SDS011;37382;45.192;9.790;2022-12-11T18:31:34;10.35;;;7.63;;
51298;SDS011;37382;45.192;9.790;2022-12-11T18:34:08;13.90;;;9.20;;
51298;SDS011;37382;45.192;9.790;2022-12-11T18:36:37;13.55;;;10.32;;
51298;SDS011;37382;45.192;9.790;2022-12-11T18:39:06;14.32;;;11.23;;
51298;SDS011;37382;45.192;9.790;2022-12-11T18:41:34;14.55;;;11.02;;
51298;SDS011;37382;45.192;9.790;2022-12-11T18:44:01;21.55;;;16.15;;
51298;SDS011;37382;45.192;9.790;2022-12-11T18:46:35;17.67;;;12.77;;
51298;SDS011;37382;45.192;9.790;2022-12-11T18:49:05;15.95;;;9.90;;
51298;SDS011;37382;45.192;9.790;2022-12-11T18:51:33;13.02;;;10.15;;
51298;SDS011;37382;45.192;9.790;2022-12-11T18:54:02;13.07;;;8.70;;
51298;SDS011;37382;45.192;9.790;2022-12-11T18:56:29;18.02;;;11.13;;
51298;SDS011;37382;45.192;9.790;2022-12-11T18:58:57;17.10;;;11.27;;
51298;SDS011;37382;45.192;9.790;2022-12-11T19:01:25;15.88;;;12.18;;
51298;SDS011;37382;45.192;9.790;2022-12-11T19:03:55;17.98;;;14.75;;
51298;SDS011;37382;45.192;9.790;2022-12-11T19:06:32;17.00;;;13.52;;
51298;SDS011;37382;45.192;9.790;2022-12-11T19:09:02;19.33;;;14.90;;
51298;SDS011;37382;45.192;9.790;2022-12-11T19:11:31;12.90;;;10.18;;
51298;SDS011;37382;45.192;9.790;2022-12-11T19:14:00;14.00;;;11.70;;
51298;SDS011;37382;45.192;9.790;2022-12-11T19:16:31;14.68;;;11.73;;
51298;SDS011;37382;45.192;9.790;2022-12-11T19:21:31;12.23;;;9.00;;
51298;SDS011;37382;45.192;9.790;2022-12-11T19:24:01;21.13;;;12.10;;
51298;SDS011;37382;45.192;9.790;2022-12-11T19:26:28;18.85;;;13.20;;
51298;SDS011;37382;45.192;9.790;2022-12-11T19:28:55;23.33;;;15.35;;
51298;SDS011;37382;45.192;9.790;2022-12-11T19:31:27;18.58;;;12.88;;
51298;SDS011;37382;45.192;9.790;2022-12-11T19:33:57;17.60;;;13.23;;
51298;SDS011;37382;45.192;9.790;2022-12-11T19:36:26;17.50;;;12.50;;
51298;SDS011;37382;45.192;9.790;2022-12-11T19:38:55;19.13;;;11.48;;
51298;SDS011;37382;45.192;9.790;2022-12-11T19:41:28;20.42;;;12.75;;
51298;SDS011;37382;45.192;9.790;2022-12-11T19:43:57;16.23;;;11.50;;
51298;SDS011;37382;45.192;9.790;2022-12-11T19:46:33;15.27;;;11.65;;
51298;SDS011;37382;45.192;9.790;2022-12-11T19:49:05;14.02;;;10.52;;
51298;SDS011;37382;45.192;9.790;2022-12-11T19:51:34;13.10;;;9.65;;
51298;SDS011;37382;45.192;9.790;2022-12-11T19:54:06;9.65;;;7.57;;
51298;SDS011;37382;45.192;9.790;2022-12-11T19:56:35;10.68;;;7.97;;
51298;SDS011;37382;45.192;9.790;2022-12-11T19:59:05;19.92;;;12.80;;
51298;SDS011;37382;45.192;9.790;2022-12-11T20:01:38;27.85;;;17.20;;
51298;SDS011;37382;45.192;9.790;2022-12-11T20:04:07;42.85;;;20.83;;
51298;SDS011;37382;45.192;9.790;2022-12-11T20:06:37;43.97;;;22.27;;
51298;SDS011;37382;45.192;9.790;2022-12-11T20:09:07;32.90;;;19.27;;
51298;SDS011;37382;45.192;9.790;2022-12-11T20:11:38;15.02;;;10.35;;
51298;SDS011;37382;45.192;9.790;2022-12-11T20:14:07;10.40;;;7.75;;
51298;SDS011;37382;45.192;9.790;2022-12-11T20:16:35;8.70;;;6.13;;
51298;SDS011;37382;45.192;9.790;2022-12-11T20:19:22;9.07;;;6.47;;
51298;SDS011;37382;45.192;9.790;2022-12-11T20:21:50;10.02;;;6.78;;
51298;SDS011;37382;45.192;9.790;2022-12-11T20:24:18;10.57;;;7.38;;
51298;SDS011;37382;45.192;9.790;2022-12-11T20:26:46;17.45;;;12.98;;
51298;SDS011;37382;45.192;9.790;2022-12-11T20:29:15;14.80;;;10.27;;
51298;SDS011;37382;45.192;9.790;2022-12-11T20:31:43;19.98;;;13.20;;
51298;SDS011;37382;45.192;9.790;2022-12-11T20:34:11;21.45;;;11.68;;
51298;SDS011;37382;45.192;9.790;2022-12-11T20:36:40;29.92;;;16.60;;
51298;SDS011;37382;45.192;9.790;2022-12-11T20:39:07;25.30;;;14.40;;
51298;SDS011;37382;45.192;9.790;2022-12-11T20:41:36;34.15;;;16.77;;
51298;SDS011;37382;45.192;9.790;2022-12-11T20:44:03;23.10;;;11.35;;
51298;SDS011;37382;45.192;9.790;2022-12-11T20:46:31;13.73;;;9.77;;
51298;SDS011;37382;45.192;9.790;2022-12-11T20:48:58;24.20;;;11.82;;
51298;SDS011;37382;45.192;9.790;2022-12-11T20:51:27;16.63;;;9.50;;
51298;SDS011;37382;45.192;9.790;2022-12-11T20:53:55;16.63;;;9.23;;
51298;SDS011;37382;45.192;9.790;2022-12-11T20:56:26;14.25;;;10.07;;
51298;SDS011;37382;45.192;9.790;2022-12-11T20:58:57;13.30;;;9.25;;
51298;SDS011;37382;45.192;9.790;2022-12-11T21:01:27;12.52;;;9.45;;
51298;SDS011;37382;45.192;9.790;2022-12-11T21:03:57;13.55;;;8.45;;
51298;SDS011;37382;45.192;9.790;2022-12-11T21:06:27;16.90;;;10.98;;